sensor_id;sensor_type;location;lat;lon;timestamp;pressure;altitude;pressure_sealevel;temperature;humidity
63347;BME280;49472;49.880;8.650;2023-06-01T00:01:51;50292.25;;;-142.94;55.90
63347;BME280;49472;49.880;8.650;2023-06-01T00:04:16;50323.34;;;-142.94;57.04
63347;BME280;49472;49.880;8.650;2023-06-01T00:06:44;50210.69;;;-142.94;55.39
63347;BME280;49472;49.880;8.650;2023-06-01T00:09:10;50233.97;;;-142.94;55.76
63347;BME280;49472;49.880;8.650;2023-06-01T00:11:35;50272.84;;;-142.94;56.02
63347;BME280;49472;49.880;8.650;2023-06-01T00:14:01;50408.81;;;-142.94;58.01
63347;BME280;49472;49.880;8.650;2023-06-01T00:16:27;50441.84;;;-142.94;58.08
63347;BME280;49472;49.880;8.650;2023-06-01T00:18:54;50404.94;;;-142.94;57.64
63347;BME280;49472;49.880;8.650;2023-06-01T00:21:21;50276.72;;;-142.94;56.32
63347;BME280;49472;49.880;8.650;2023-06-01T00:23:46;50303.91;;;-142.94;56.44
63347;BME280;49472;49.880;8.650;2023-06-01T00:26:11;50472.94;;;-142.94;58.64
63347;BME280;49472;49.880;8.650;2023-06-01T00:28:37;50575.91;;;-142.94;59.65
63347;BME280;49472;49.880;8.650;2023-06-01T00:31:02;50711.91;;;-142.94;60.86
63347;BME280;49472;49.880;8.650;2023-06-01T00:33:27;50667.22;;;-142.94;60.44
63347;BME280;49472;49.880;8.650;2023-06-01T00:35:53;50515.66;;;-142.94;59.37
63347;BME280;49472;49.880;8.650;2023-06-01T00:38:18;50585.59;;;-142.94;59.62
63347;BME280;49472;49.880;8.650;2023-06-01T00:40:44;50698.28;;;-142.94;61.07
63347;BME280;49472;49.880;8.650;2023-06-01T00:43:10;50577.84;;;-142.94;59.67
63347;BME280;49472;49.880;8.650;2023-06-01T00:45:36;50651.66;;;-142.94;60.39
63347;BME280;49472;49.880;8.650;2023-06-01T00:48:02;50645.84;;;-142.94;60.52
63347;BME280;49472;49.880;8.650;2023-06-01T00:50:28;50692.47;;;-142.94;60.31
63347;BME280;49472;49.880;8.650;2023-06-01T00:52:55;50663.31;;;-142.94;60.50
63347;BME280;49472;49.880;8.650;2023-06-01T00:55:20;50610.88;;;-142.94;60.29
63347;BME280;49472;49.880;8.650;2023-06-01T00:57:46;50593.38;;;-142.94;59.58
63347;BME280;49472;49.880;8.650;2023-06-01T01:00:13;50680.81;;;-142.94;60.95
63347;BME280;49472;49.880;8.650;2023-06-01T01:02:40;50552.59;;;-142.94;59.31
63347;BME280;49472;49.880;8.650;2023-06-01T01:05:08;50735.22;;;-142.94;61.13
63347;BME280;49472;49.880;8.650;2023-06-01T01:11:26;50968.34;;;-142.94;63.24
63347;BME280;49472;49.880;8.650;2023-06-01T01:13:42;50774.06;;;-142.94;61.77
63347;BME280;49472;49.880;8.650;2023-06-01T01:17:01;50908.13;;;-142.94;62.75
63347;BME280;49472;49.880;8.650;2023-06-01T01:30:30;50855.66;;;-142.94;62.02
63347;BME280;49472;49.880;8.650;2023-06-01T01:32:58;50933.38;;;-142.94;63.33
63347;BME280;49472;49.880;8.650;2023-06-01T01:35:26;51046.09;;;-142.94;64.28
63347;BME280;49472;49.880;8.650;2023-06-01T01:37:55;51403.63;;;-142.94;66.57
63347;BME280;49472;49.880;8.650;2023-06-01T01:40:21;51145.19;;;-142.94;64.70
63347;BME280;49472;49.880;8.650;2023-06-01T01:42:48;51228.72;;;-142.94;65.69
63347;BME280;49472;49.880;8.650;2023-06-01T01:45:14;51259.81;;;-142.94;65.83
63347;BME280;49472;49.880;8.650;2023-06-01T01:50:18;51279.25;;;-142.94;65.80
63347;BME280;49472;49.880;8.650;2023-06-01T01:52:47;51219.00;;;-142.94;65.41
63347;BME280;49472;49.880;8.650;2023-06-01T01:55:14;51341.44;;;-142.94;66.11
63347;BME280;49472;49.880;8.650;2023-06-01T01:57:41;51255.94;;;-142.94;65.43
63347;BME280;49472;49.880;8.650;2023-06-01T02:00:08;51477.47;;;-142.94;67.20
63347;BME280;49472;49.880;8.650;2023-06-01T02:02:36;51283.13;;;-142.94;65.65
63347;BME280;49472;49.880;8.650;2023-06-01T02:05:02;51594.06;;;-142.94;67.84
63347;BME280;49472;49.880;8.650;2023-06-01T02:07:28;51275.38;;;-142.94;65.42
63347;BME280;49472;49.880;8.650;2023-06-01T02:09:53;51446.38;;;-142.94;66.60
63347;BME280;49472;49.880;8.650;2023-06-01T02:12:18;51475.53;;;-142.94;67.35
63347;BME280;49472;49.880;8.650;2023-06-01T02:14:44;51702.91;;;-142.94;68.43
63347;BME280;49472;49.880;8.650;2023-06-01T02:17:09;51559.09;;;-142.94;67.69
63347;BME280;49472;49.880;8.650;2023-06-01T02:19:34;51636.81;;;-142.94;68.23
63347;BME280;49472;49.880;8.650;2023-06-01T02:22:00;51615.44;;;-142.94;68.08
63347;BME280;49472;49.880;8.650;2023-06-01T02:24:25;51996.38;;;-142.94;70.45
63347;BME280;49472;49.880;8.650;2023-06-01T02:26:51;51667.91;;;-142.94;68.13
63347;BME280;49472;49.880;8.650;2023-06-01T02:29:20;51720.38;;;-142.94;68.50
63347;BME280;49472;49.880;8.650;2023-06-01T02:31:49;52043.00;;;-142.94;70.43
63347;BME280;49472;49.880;8.650;2023-06-01T02:34:16;52266.53;;;-142.94;71.39
63347;BME280;49472;49.880;8.650;2023-06-01T02:36:41;52414.25;;;-142.94;72.36
63347;BME280;49472;49.880;8.650;2023-06-01T02:39:06;52523.13;;;-142.94;72.85
63347;BME280;49472;49.880;8.650;2023-06-01T02:41:32;52451.19;;;-142.94;72.53
63347;BME280;49472;49.880;8.650;2023-06-01T02:43:57;52165.47;;;-142.94;71.11
63347;BME280;49472;49.880;8.650;2023-06-01T02:46:22;52445.38;;;-142.94;72.63
63347;BME280;49472;49.880;8.650;2023-06-01T02:48:48;52806.94;;;-142.94;74.36
63347;BME280;49472;49.880;8.650;2023-06-01T02:51:13;52530.91;;;-142.94;73.04
63347;BME280;49472;49.880;8.650;2023-06-01T02:53:42;52476.47;;;-142.94;73.17
63347;BME280;49472;49.880;8.650;2023-06-01T02:56:07;52803.06;;;-142.94;74.42
63347;BME280;49472;49.880;8.650;2023-06-01T02:58:33;53086.91;;;-142.94;76.11
63347;BME280;49472;49.880;8.650;2023-06-01T03:00:59;53098.56;;;-142.94;76.13
63347;BME280;49472;49.880;8.650;2023-06-01T03:03:25;52915.81;;;-142.94;74.93
63347;BME280;49472;49.880;8.650;2023-06-01T03:05:52;53378.53;;;-142.94;77.94
63347;BME280;49472;49.880;8.650;2023-06-01T03:08:18;52962.47;;;-142.94;75.66
63347;BME280;49472;49.880;8.650;2023-06-01T03:10:44;52806.94;;;-142.94;74.87
63347;BME280;49472;49.880;8.650;2023-06-01T03:13:09;52979.97;;;-142.94;76.01
63347;BME280;49472;49.880;8.650;2023-06-01T03:15:35;52773.88;;;-142.94;74.82
63347;BME280;49472;49.880;8.650;2023-06-01T03:18:02;53061.63;;;-142.94;76.91
63347;BME280;49472;49.880;8.650;2023-06-01T03:20:28;52406.50;;;-142.94;73.26
63347;BME280;49472;49.880;8.650;2023-06-01T03:22:53;52694.19;;;-142.94;74.87
63347;BME280;49472;49.880;8.650;2023-06-01T03:25:18;52871.09;;;-142.94;75.93
63347;BME280;49472;49.880;8.650;2023-06-01T03:27:44;52960.53;;;-142.94;77.07
63347;BME280;49472;49.880;8.650;2023-06-01T03:30:10;52857.47;;;-142.94;76.27
63347;BME280;49472;49.880;8.650;2023-06-01T03:32:40;52637.81;;;-142.94;75.32
63347;BME280;49472;49.880;8.650;2023-06-01T03:35:09;52764.16;;;-142.94;76.05
63347;BME280;49472;49.880;8.650;2023-06-01T03:37:35;53059.69;;;-142.94;78.53
63347;BME280;49472;49.880;8.650;2023-06-01T03:40:02;52871.09;;;-142.94;77.02
63347;BME280;49472;49.880;8.650;2023-06-01T03:42:38;52740.84;;;-142.94;75.94
63347;BME280;49472;49.880;8.650;2023-06-01T03:45:04;52880.81;;;-142.94;77.77
63347;BME280;49472;49.880;8.650;2023-06-01T03:47:30;52944.97;;;-142.94;78.23
63347;BME280;49472;49.880;8.650;2023-06-01T03:49:56;52976.06;;;-142.94;79.15
63347;BME280;49472;49.880;8.650;2023-06-01T03:52:23;52892.47;;;-142.94;78.07
63347;BME280;49472;49.880;8.650;2023-06-01T03:54:49;52931.38;;;-142.94;80.46
63347;BME280;49472;49.880;8.650;2023-06-01T03:57:14;52838.03;;;-142.94;77.90
63347;BME280;49472;49.880;8.650;2023-06-01T03:59:40;52878.88;;;-142.94;79.45
63347;BME280;49472;49.880;8.650;2023-06-01T04:02:06;52620.31;;;-142.94;76.46
63347;BME280;49472;49.880;8.650;2023-06-01T04:04:33;52593.09;;;-142.94;76.07
63347;BME280;49472;49.880;8.650;2023-06-01T04:06:59;52713.63;;;-142.94;77.44
63347;BME280;49472;49.880;8.650;2023-06-01T04:09:27;52663.09;;;-142.94;77.06
63347;BME280;49472;49.880;8.650;2023-06-01T04:11:54;52628.09;;;-142.94;76.78
63347;BME280;49472;49.880;8.650;2023-06-01T04:14:20;52700.00;;;-142.94;78.04
63347;BME280;49472;49.880;8.650;2023-06-01T04:16:45;52637.81;;;-142.94;76.98
63347;BME280;49472;49.880;8.650;2023-06-01T04:19:11;52709.75;;;-142.94;79.35
63347;BME280;49472;49.880;8.650;2023-06-01T04:21:36;52606.72;;;-142.94;77.73
63347;BME280;49472;49.880;8.650;2023-06-01T04:24:02;52569.78;;;-142.94;77.23
63347;BME280;49472;49.880;8.650;2023-06-01T04:26:27;52645.59;;;-142.94;78.86
63347;BME280;49472;49.880;8.650;2023-06-01T04:28:52;52628.09;;;-142.94;78.74
63347;BME280;49472;49.880;8.650;2023-06-01T04:31:22;52577.53;;;-142.94;79.67
63347;BME280;49472;49.880;8.650;2023-06-01T04:33:49;52513.41;;;-142.94;79.93
63347;BME280;49472;49.880;8.650;2023-06-01T04:36:19;52523.13;;;-142.94;79.49
63347;BME280;49472;49.880;8.650;2023-06-01T04:38:48;52476.47;;;-142.94;79.35
63347;BME280;49472;49.880;8.650;2023-06-01T04:41:17;52460.91;;;-142.94;77.87
63347;BME280;49472;49.880;8.650;2023-06-01T04:43:42;52457.03;;;-142.94;79.70
63347;BME280;49472;49.880;8.650;2023-06-01T04:46:07;52425.94;;;-142.94;79.51
63347;BME280;49472;49.880;8.650;2023-06-01T04:48:33;52433.69;;;-142.94;78.27
63347;BME280;49472;49.880;8.650;2023-06-01T04:50:58;52330.69;;;-142.94;76.43
63347;BME280;49472;49.880;8.650;2023-06-01T04:53:24;52346.22;;;-142.94;76.82
63347;BME280;49472;49.880;8.650;2023-06-01T04:55:50;52375.38;;;-142.94;76.90
63347;BME280;49472;49.880;8.650;2023-06-01T04:58:15;52379.28;;;-142.94;78.60
63347;BME280;49472;49.880;8.650;2023-06-01T05:00:41;52289.84;;;-142.94;76.44
63347;BME280;49472;49.880;8.650;2023-06-01T05:03:06;52420.09;;;-142.94;78.50
63347;BME280;49472;49.880;8.650;2023-06-01T05:05:32;52293.75;;;-142.94;79.84
63347;BME280;49472;49.880;8.650;2023-06-01T05:07:57;52348.16;;;-142.94;77.99
63347;BME280;49472;49.880;8.650;2023-06-01T05:10:23;52344.28;;;-142.94;78.64
63347;BME280;49472;49.880;8.650;2023-06-01T05:12:48;52326.78;;;-142.94;77.65
63347;BME280;49472;49.880;8.650;2023-06-01T05:15:14;52317.06;;;-142.94;78.71
63347;BME280;49472;49.880;8.650;2023-06-01T05:17:41;52289.84;;;-142.94;78.97
63347;BME280;49472;49.880;8.650;2023-06-01T05:20:07;52157.69;;;-142.94;75.06
63347;BME280;49472;49.880;8.650;2023-06-01T05:22:34;52284.03;;;-142.94;77.10
63347;BME280;49472;49.880;8.650;2023-06-01T05:24:59;52198.50;;;-142.94;75.62
63347;BME280;49472;49.880;8.650;2023-06-01T05:27:25;52239.31;;;-142.94;76.14
63347;BME280;49472;49.880;8.650;2023-06-01T05:29:51;52130.47;;;-142.94;75.07
63347;BME280;49472;49.880;8.650;2023-06-01T05:32:16;52107.16;;;-142.94;74.73
63347;BME280;49472;49.880;8.650;2023-06-01T05:34:42;52136.31;;;-142.94;75.44
63347;BME280;49472;49.880;8.650;2023-06-01T05:37:08;52287.91;;;-142.94;76.73
63347;BME280;49472;49.880;8.650;2023-06-01T05:39:33;52140.19;;;-142.94;74.93
63347;BME280;49472;49.880;8.650;2023-06-01T05:41:59;52177.13;;;-142.94;75.50
63347;BME280;49472;49.880;8.650;2023-06-01T05:44:25;52250.97;;;-142.94;76.10
63347;BME280;49472;49.880;8.650;2023-06-01T05:46:50;52111.03;;;-142.94;74.90
63347;BME280;49472;49.880;8.650;2023-06-01T05:49:18;52177.13;;;-142.94;75.08
63347;BME280;49472;49.880;8.650;2023-06-01T05:51:43;52285.97;;;-142.94;77.56
63347;BME280;49472;49.880;8.650;2023-06-01T05:54:09;52303.47;;;-142.94;77.90
63347;BME280;49472;49.880;8.650;2023-06-01T05:56:35;52229.59;;;-142.94;76.55
63347;BME280;49472;49.880;8.650;2023-06-01T05:59:02;52231.53;;;-142.94;76.64
63347;BME280;49472;49.880;8.650;2023-06-01T06:01:29;52128.53;;;-142.94;75.07
63347;BME280;49472;49.880;8.650;2023-06-01T06:03:54;52099.38;;;-142.94;74.51
63347;BME280;49472;49.880;8.650;2023-06-01T06:06:20;52070.22;;;-142.94;74.22
63347;BME280;49472;49.880;8.650;2023-06-01T06:08:47;52041.06;;;-142.94;74.47
63347;BME280;49472;49.880;8.650;2023-06-01T06:11:12;51963.31;;;-142.94;73.92
63347;BME280;49472;49.880;8.650;2023-06-01T06:13:39;52062.44;;;-142.94;74.23
63347;BME280;49472;49.880;8.650;2023-06-01T06:16:05;52081.88;;;-142.94;74.49
63347;BME280;49472;49.880;8.650;2023-06-01T06:18:32;52021.63;;;-142.94;73.76
63347;BME280;49472;49.880;8.650;2023-06-01T06:20:57;51930.28;;;-142.94;73.36
63347;BME280;49472;49.880;8.650;2023-06-01T06:23:24;51899.19;;;-142.94;72.85
63347;BME280;49472;49.880;8.650;2023-06-01T06:25:49;51879.75;;;-142.94;72.59
63347;BME280;49472;49.880;8.650;2023-06-01T06:28:15;51796.19;;;-142.94;71.88
63347;BME280;49472;49.880;8.650;2023-06-01T06:30:41;51664.03;;;-142.94;71.11
63347;BME280;49472;49.880;8.650;2023-06-01T06:33:06;51634.88;;;-142.94;70.85
63347;BME280;49472;49.880;8.650;2023-06-01T06:35:33;51582.41;;;-142.94;70.68
63347;BME280;49472;49.880;8.650;2023-06-01T06:37:59;51526.03;;;-142.94;70.20
63347;BME280;49472;49.880;8.650;2023-06-01T06:40:24;51580.47;;;-142.94;70.35
63347;BME280;49472;49.880;8.650;2023-06-01T06:42:49;51491.06;;;-142.94;70.00
63347;BME280;49472;49.880;8.650;2023-06-01T06:45:18;51619.31;;;-142.94;70.62
63347;BME280;49472;49.880;8.650;2023-06-01T06:47:46;51660.13;;;-142.94;70.82
63347;BME280;49472;49.880;8.650;2023-06-01T06:50:12;51644.59;;;-142.94;71.00
63347;BME280;49472;49.880;8.650;2023-06-01T06:52:38;51650.41;;;-142.94;71.05
63347;BME280;49472;49.880;8.650;2023-06-01T06:55:03;51609.59;;;-142.94;70.72
63347;BME280;49472;49.880;8.650;2023-06-01T06:57:29;51662.09;;;-142.94;71.02
63347;BME280;49472;49.880;8.650;2023-06-01T06:59:54;51533.81;;;-142.94;69.93
63347;BME280;49472;49.880;8.650;2023-06-01T07:02:21;51625.16;;;-142.94;70.67
63347;BME280;49472;49.880;8.650;2023-06-01T07:04:46;51477.47;;;-142.94;69.32
63347;BME280;49472;49.880;8.650;2023-06-01T07:07:12;51572.69;;;-142.94;70.38
63347;BME280;49472;49.880;8.650;2023-06-01T07:09:37;51504.66;;;-142.94;69.14
63347;BME280;49472;49.880;8.650;2023-06-01T07:12:04;51403.63;;;-142.94;68.89
63347;BME280;49472;49.880;8.650;2023-06-01T07:14:31;51314.22;;;-142.94;68.26
63347;BME280;49472;49.880;8.650;2023-06-01T07:16:56;51388.06;;;-142.94;68.57
63347;BME280;49472;49.880;8.650;2023-06-01T07:19:21;51504.66;;;-142.94;69.71
63347;BME280;49472;49.880;8.650;2023-06-01T07:21:47;51436.66;;;-142.94;68.82
63347;BME280;49472;49.880;8.650;2023-06-01T07:24:12;51279.25;;;-142.94;67.64
63347;BME280;49472;49.880;8.650;2023-06-01T07:26:38;51259.81;;;-142.94;67.29
63347;BME280;49472;49.880;8.650;2023-06-01T07:29:03;51259.81;;;-142.94;67.70
63347;BME280;49472;49.880;8.650;2023-06-01T07:31:29;51395.84;;;-142.94;68.57
63347;BME280;49472;49.880;8.650;2023-06-01T07:33:54;51213.19;;;-142.94;67.04
63347;BME280;49472;49.880;8.650;2023-06-01T07:36:22;51298.69;;;-142.94;68.02
63347;BME280;49472;49.880;8.650;2023-06-01T07:38:51;51158.78;;;-142.94;66.68
63347;BME280;49472;49.880;8.650;2023-06-01T07:41:16;51096.59;;;-142.94;66.14
63347;BME280;49472;49.880;8.650;2023-06-01T07:43:42;51073.28;;;-142.94;65.77
63347;BME280;49472;49.880;8.650;2023-06-01T07:46:07;51096.59;;;-142.94;65.62
63347;BME280;49472;49.880;8.650;2023-06-01T07:48:32;51055.78;;;-142.94;65.34
63347;BME280;49472;49.880;8.650;2023-06-01T07:51:02;50966.41;;;-142.94;64.77
63347;BME280;49472;49.880;8.650;2023-06-01T07:53:27;51051.91;;;-142.94;65.54
63347;BME280;49472;49.880;8.650;2023-06-01T07:55:57;50972.25;;;-142.94;64.84
63347;BME280;49472;49.880;8.650;2023-06-01T07:58:23;50882.88;;;-142.94;63.78
63347;BME280;49472;49.880;8.650;2023-06-01T08:00:49;50793.50;;;-142.94;63.46
63347;BME280;49472;49.880;8.650;2023-06-01T08:03:15;50795.44;;;-142.94;63.01
63347;BME280;49472;49.880;8.650;2023-06-01T08:05:41;50818.75;;;-142.94;63.83
63347;BME280;49472;49.880;8.650;2023-06-01T08:08:09;50871.22;;;-142.94;63.54
63347;BME280;49472;49.880;8.650;2023-06-01T08:10:35;50801.25;;;-142.94;62.91
63347;BME280;49472;49.880;8.650;2023-06-01T08:13:01;50818.75;;;-142.94;63.41
63347;BME280;49472;49.880;8.650;2023-06-01T08:15:27;50939.22;;;-142.94;64.19
63347;BME280;49472;49.880;8.650;2023-06-01T08:17:54;50878.97;;;-142.94;63.31
63347;BME280;49472;49.880;8.650;2023-06-01T08:20:20;50880.94;;;-142.94;63.60
63347;BME280;49472;49.880;8.650;2023-06-01T08:22:48;50842.06;;;-142.94;63.63
63347;BME280;49472;49.880;8.650;2023-06-01T08:25:14;50704.13;;;-142.94;62.11
63347;BME280;49472;49.880;8.650;2023-06-01T08:27:39;50803.22;;;-142.94;62.84
63347;BME280;49472;49.880;8.650;2023-06-01T08:30:06;50766.28;;;-142.94;62.37
63347;BME280;49472;49.880;8.650;2023-06-01T08:32:32;50540.94;;;-142.94;60.23
63347;BME280;49472;49.880;8.650;2023-06-01T08:34:57;50651.66;;;-142.94;61.57
63347;BME280;49472;49.880;8.650;2023-06-01T08:37:23;50671.09;;;-142.94;61.64
63347;BME280;49472;49.880;8.650;2023-06-01T08:39:48;50601.16;;;-142.94;60.51
63347;BME280;49472;49.880;8.650;2023-06-01T08:42:29;50463.22;;;-142.94;59.38
63347;BME280;49472;49.880;8.650;2023-06-01T08:44:57;50509.84;;;-142.94;59.88
63347;BME280;49472;49.880;8.650;2023-06-01T08:47:26;50601.16;;;-142.94;60.77
63347;BME280;49472;49.880;8.650;2023-06-01T08:49:53;50447.69;;;-142.94;59.27
63347;BME280;49472;49.880;8.650;2023-06-01T08:52:20;50393.28;;;-142.94;58.07
63347;BME280;49472;49.880;8.650;2023-06-01T08:54:46;50397.16;;;-142.94;58.19
63347;BME280;49472;49.880;8.650;2023-06-01T08:57:13;50305.88;;;-142.94;57.18
63347;BME280;49472;49.880;8.650;2023-06-01T08:59:39;50307.81;;;-142.94;57.27
63347;BME280;49472;49.880;8.650;2023-06-01T09:02:06;50278.66;;;-142.94;57.27
63347;BME280;49472;49.880;8.650;2023-06-01T09:04:32;50331.13;;;-142.94;57.41
63347;BME280;49472;49.880;8.650;2023-06-01T09:07:06;50187.38;;;-142.94;56.06
63347;BME280;49472;49.880;8.650;2023-06-01T09:09:32;50109.66;;;-142.94;55.28
63347;BME280;49472;49.880;8.650;2023-06-01T09:12:19;50082.47;;;-142.94;55.01
63347;BME280;49472;49.880;8.650;2023-06-01T09:14:45;49872.69;;;-142.94;52.05
63347;BME280;49472;49.880;8.650;2023-06-01T09:17:15;49899.88;;;-142.94;52.12
63347;BME280;49472;49.880;8.650;2023-06-01T09:19:46;49833.84;;;-142.94;51.32
63347;BME280;49472;49.880;8.650;2023-06-01T09:22:13;49942.59;;;-142.94;53.16
63347;BME280;49472;49.880;8.650;2023-06-01T09:24:39;49905.72;;;-142.94;52.49
63347;BME280;49472;49.880;8.650;2023-06-01T09:27:08;49903.75;;;-142.94;52.18
63347;BME280;49472;49.880;8.650;2023-06-01T09:29:33;49740.59;;;-142.94;49.83
63347;BME280;49472;49.880;8.650;2023-06-01T09:32:02;49853.25;;;-142.94;51.97
63347;BME280;49472;49.880;8.650;2023-06-01T09:34:28;49820.25;;;-142.94;50.85
63347;BME280;49472;49.880;8.650;2023-06-01T09:36:55;49921.25;;;-142.94;52.37
63347;BME280;49472;49.880;8.650;2023-06-01T09:39:23;49936.78;;;-142.94;52.38
63347;BME280;49472;49.880;8.650;2023-06-01T09:41:57;49905.72;;;-142.94;52.15
63347;BME280;49472;49.880;8.650;2023-06-01T09:44:27;49804.69;;;-142.94;50.86
63347;BME280;49472;49.880;8.650;2023-06-01T09:47:00;49789.16;;;-142.94;50.47
63347;BME280;49472;49.880;8.650;2023-06-01T09:49:48;49818.28;;;-142.94;50.77
63347;BME280;49472;49.880;8.650;2023-06-01T09:52:15;49800.81;;;-142.94;50.39
63347;BME280;49472;49.880;8.650;2023-06-01T09:54:50;49765.84;;;-142.94;49.88
63347;BME280;49472;49.880;8.650;2023-06-01T09:57:26;49732.84;;;-142.94;49.31
63347;BME280;49472;49.880;8.650;2023-06-01T09:59:54;49695.94;;;-142.94;48.85
63347;BME280;49472;49.880;8.650;2023-06-01T10:02:21;49635.72;;;-142.94;47.78
63347;BME280;49472;49.880;8.650;2023-06-01T10:04:49;49703.69;;;-142.94;48.56
63347;BME280;49472;49.880;8.650;2023-06-01T10:07:15;49688.16;;;-142.94;47.65
63347;BME280;49472;49.880;8.650;2023-06-01T10:09:43;49672.63;;;-142.94;47.65
63347;BME280;49472;49.880;8.650;2023-06-01T10:12:09;49686.22;;;-142.94;47.94
63347;BME280;49472;49.880;8.650;2023-06-01T10:14:38;49565.81;;;-142.94;45.22
63347;BME280;49472;49.880;8.650;2023-06-01T10:17:04;49608.53;;;-142.94;46.72
63347;BME280;49472;49.880;8.650;2023-06-01T10:19:30;49627.94;;;-142.94;47.16
63347;BME280;49472;49.880;8.650;2023-06-01T10:21:59;49616.31;;;-142.94;46.99
63347;BME280;49472;49.880;8.650;2023-06-01T10:24:25;49558.03;;;-142.94;46.06
63347;BME280;49472;49.880;8.650;2023-06-01T10:27:32;49519.19;;;-142.94;44.38
63347;BME280;49472;49.880;8.650;2023-06-01T10:29:58;49546.38;;;-142.94;45.46
63347;BME280;49472;49.880;8.650;2023-06-01T10:35:09;49528.91;;;-142.94;44.72
63347;BME280;49472;49.880;8.650;2023-06-01T10:37:38;49515.31;;;-142.94;44.21
63347;BME280;49472;49.880;8.650;2023-06-01T10:42:44;49513.38;;;-142.94;43.83
63347;BME280;49472;49.880;8.650;2023-06-01T10:48:01;49488.13;;;-142.94;43.45
63347;BME280;49472;49.880;8.650;2023-06-01T10:50:27;49391.00;;;-142.94;41.55
63347;BME280;49472;49.880;8.650;2023-06-01T10:52:57;49439.56;;;-142.94;42.89
63347;BME280;49472;49.880;8.650;2023-06-01T10:55:39;49418.19;;;-142.94;41.61
63347;BME280;49472;49.880;8.650;2023-06-01T10:58:21;49424.03;;;-142.94;41.74
63347;BME280;49472;49.880;8.650;2023-06-01T11:00:54;49433.75;;;-142.94;41.89
63347;BME280;49472;49.880;8.650;2023-06-01T11:03:43;49392.94;;;-142.94;40.90
63347;BME280;49472;49.880;8.650;2023-06-01T11:06:30;49373.53;;;-142.94;40.33
63347;BME280;49472;49.880;8.650;2023-06-01T11:09:02;49410.44;;;-142.94;40.11
63347;BME280;49472;49.880;8.650;2023-06-01T11:14:17;49363.81;;;-142.94;38.67
63347;BME280;49472;49.880;8.650;2023-06-01T11:16:43;49361.88;;;-142.94;39.53
63347;BME280;49472;49.880;8.650;2023-06-01T11:19:21;49334.69;;;-142.94;37.44
63347;BME280;49472;49.880;8.650;2023-06-01T11:21:55;49330.81;;;-142.94;37.09
63347;BME280;49472;49.880;8.650;2023-06-01T11:24:31;49352.16;;;-142.94;37.09
63347;BME280;49472;49.880;8.650;2023-06-01T11:27:05;49307.50;;;-142.94;35.85
63347;BME280;49472;49.880;8.650;2023-06-01T11:29:31;49324.97;;;-142.94;35.50
63347;BME280;49472;49.880;8.650;2023-06-01T11:31:59;49290.03;;;-142.94;34.69
63347;BME280;49472;49.880;8.650;2023-06-01T11:34:38;49280.31;;;-142.94;34.28
63347;BME280;49472;49.880;8.650;2023-06-01T11:37:13;49237.59;;;-142.94;33.63
63347;BME280;49472;49.880;8.650;2023-06-01T11:39:40;49290.03;;;-142.94;34.47
63347;BME280;49472;49.880;8.650;2023-06-01T11:42:33;49251.19;;;-142.94;33.85
63347;BME280;49472;49.880;8.650;2023-06-01T11:45:02;49239.53;;;-142.94;32.38
63347;BME280;49472;49.880;8.650;2023-06-01T11:47:29;49216.22;;;-142.94;33.27
63347;BME280;49472;49.880;8.650;2023-06-01T11:49:55;49154.09;;;-142.94;32.93
63347;BME280;49472;49.880;8.650;2023-06-01T11:52:20;49247.28;;;-142.94;32.37
63347;BME280;49472;49.880;8.650;2023-06-01T11:54:47;49103.59;;;-142.94;31.71
63347;BME280;49472;49.880;8.650;2023-06-01T11:57:13;49148.25;;;-142.94;31.62
63347;BME280;49472;49.880;8.650;2023-06-01T11:59:40;49148.25;;;-142.94;30.71
63347;BME280;49472;49.880;8.650;2023-06-01T12:05:06;49163.78;;;-142.94;30.89
63347;BME280;49472;49.880;8.650;2023-06-01T12:07:50;49220.09;;;-142.94;29.01
63347;BME280;49472;49.880;8.650;2023-06-01T12:10:17;49169.63;;;-142.94;29.86
63347;BME280;49472;49.880;8.650;2023-06-01T12:12:44;49169.63;;;-142.94;29.40
63347;BME280;49472;49.880;8.650;2023-06-01T12:15:15;49237.59;;;-142.94;28.63
63347;BME280;49472;49.880;8.650;2023-06-01T12:20:28;49177.38;;;-142.94;28.40
63347;BME280;49472;49.880;8.650;2023-06-01T12:22:54;49227.88;;;-142.94;27.29
63347;BME280;49472;49.880;8.650;2023-06-01T12:25:21;49313.31;;;-142.94;27.57
63347;BME280;49472;49.880;8.650;2023-06-01T12:28:06;49280.31;;;-142.94;26.95
63347;BME280;49472;49.880;8.650;2023-06-01T12:30:33;49233.69;;;-142.94;27.94
63347;BME280;49472;49.880;8.650;2023-06-01T12:32:59;49227.88;;;-142.94;26.72
63347;BME280;49472;49.880;8.650;2023-06-01T12:35:25;49290.03;;;-142.94;27.29
63347;BME280;49472;49.880;8.650;2023-06-01T12:38:17;49264.78;;;-142.94;25.95
63347;BME280;49472;49.880;8.650;2023-06-01T12:40:42;49278.38;;;-142.94;25.45
63347;BME280;49472;49.880;8.650;2023-06-01T12:43:18;49278.38;;;-142.94;25.45
63347;BME280;49472;49.880;8.650;2023-06-01T12:45:46;49408.50;;;-142.94;24.28
63347;BME280;49472;49.880;8.650;2023-06-01T12:48:31;49328.88;;;-142.94;24.55
63347;BME280;49472;49.880;8.650;2023-06-01T12:50:57;49361.88;;;-142.94;23.23
63347;BME280;49472;49.880;8.650;2023-06-01T12:53:23;49359.94;;;-142.94;23.61
63347;BME280;49472;49.880;8.650;2023-06-01T12:55:48;49391.00;;;-142.94;23.59
63347;BME280;49472;49.880;8.650;2023-06-01T12:58:15;49358.00;;;-142.94;24.61
63347;BME280;49472;49.880;8.650;2023-06-01T13:00:40;49443.44;;;-142.94;22.82
63347;BME280;49472;49.880;8.650;2023-06-01T13:03:06;49410.44;;;-142.94;23.70
63347;BME280;49472;49.880;8.650;2023-06-01T13:05:32;49431.78;;;-142.94;23.21
63347;BME280;49472;49.880;8.650;2023-06-01T13:07:58;49458.97;;;-142.94;23.61
63347;BME280;49472;49.880;8.650;2023-06-01T13:10:25;49398.78;;;-142.94;23.77
63347;BME280;49472;49.880;8.650;2023-06-01T13:12:51;49359.94;;;-142.94;23.46
63347;BME280;49472;49.880;8.650;2023-06-01T13:15:16;49408.50;;;-142.94;23.61
63347;BME280;49472;49.880;8.650;2023-06-01T13:17:41;49437.63;;;-142.94;22.93